createdAt,value
2024-03-09T00:00:45.303Z,1.30
2024-03-09T00:03:15.184Z,2.15
2024-03-09T00:05:43.723Z,1.58
2024-03-09T00:08:13.668Z,1.42
2024-03-09T00:10:42.029Z,1.85
2024-03-09T00:13:12.633Z,1.42
2024-03-09T00:15:43.650Z,2.83
2024-03-09T00:18:11.941Z,1.83
2024-03-09T00:20:40.042Z,1.45
2024-03-09T00:23:11.032Z,1.17
2024-03-09T00:25:39.727Z,1.83
2024-03-09T00:28:08.604Z,1.60
2024-03-09T00:30:37.343Z,1.10
2024-03-09T00:33:08.546Z,1.42
2024-03-09T00:35:37.690Z,1.10
2024-03-09T00:38:06.816Z,1.70
2024-03-09T00:40:35.651Z,1.27
2024-03-09T00:43:06.555Z,1.27
2024-03-09T00:45:34.840Z,1.25
2024-03-09T00:48:05.628Z,1.35
2024-03-09T00:50:34.459Z,1.48
2024-03-09T00:53:02.879Z,1.13
2024-03-09T00:55:31.189Z,1.05
2024-03-09T00:57:59.336Z,1.45
2024-03-09T01:00:27.276Z,1.33
2024-03-09T01:02:55.517Z,1.38
2024-03-09T01:05:28.870Z,1.50
2024-03-09T01:07:58.379Z,1.88
2024-03-09T01:10:26.709Z,1.05
2024-03-09T01:12:54.840Z,1.85
2024-03-09T01:15:23.595Z,0.95
2024-03-09T01:17:51.786Z,2.38
2024-03-09T01:20:20.021Z,1.38
2024-03-09T01:22:48.268Z,1.05
2024-03-09T01:25:17.087Z,1.05
2024-03-09T01:27:46.092Z,1.02
2024-03-09T01:30:14.339Z,0.85
2024-03-09T01:32:42.412Z,2.40
2024-03-09T01:35:11.372Z,1.05
2024-03-09T01:37:39.542Z,1.33
2024-03-09T01:40:09.232Z,1.15
2024-03-09T01:42:37.325Z,1.25
2024-03-09T01:45:09.090Z,2.08
2024-03-09T01:47:38.733Z,1.25
2024-03-09T01:50:15.168Z,1.85
2024-03-09T01:52:50.244Z,1.63
2024-03-09T01:55:20.644Z,1.40
2024-03-09T01:57:48.898Z,2.40
2024-03-09T02:00:19.280Z,1.80
2024-03-09T02:02:47.431Z,1.23
2024-03-09T02:05:15.803Z,1.83
2024-03-09T02:07:47.147Z,1.00
2024-03-09T02:10:15.574Z,1.50
2024-03-09T02:12:46.471Z,1.50
2024-03-09T02:15:18.599Z,1.55
2024-03-09T02:17:49.760Z,1.33
2024-03-09T02:20:19.817Z,1.50
2024-03-09T02:22:49.246Z,0.90
2024-03-09T02:25:19.024Z,1.50
2024-03-09T02:27:47.146Z,1.98
2024-03-09T02:30:15.827Z,1.45
2024-03-09T02:32:44.651Z,0.77
2024-03-09T02:35:13.372Z,1.50
2024-03-09T02:37:42.060Z,1.20
2024-03-09T02:40:13.869Z,2.10
2024-03-09T02:43:04.952Z,1.08
2024-03-09T02:45:34.258Z,1.48
2024-03-09T02:48:02.928Z,1.77
2024-03-09T02:50:30.965Z,1.13
2024-03-09T02:52:59.594Z,1.23
2024-03-09T02:55:28.986Z,0.70
2024-03-09T02:57:57.984Z,1.48
2024-03-09T03:00:28.534Z,1.13
2024-03-09T03:03:15.484Z,1.75
2024-03-09T03:05:46.129Z,1.42
2024-03-09T03:08:15.222Z,1.50
2024-03-09T03:10:43.454Z,1.00
2024-03-09T03:13:12.086Z,1.52
2024-03-09T03:15:40.339Z,1.27
2024-03-09T03:18:12.242Z,2.05
2024-03-09T03:20:40.511Z,1.02
2024-03-09T03:23:08.957Z,1.48
2024-03-09T03:25:37.566Z,2.38
2024-03-09T03:28:09.184Z,2.42
2024-03-09T03:30:39.050Z,1.50
2024-03-09T03:33:07.921Z,2.00
2024-03-09T03:35:35.947Z,1.65
2024-03-09T03:38:04.629Z,1.45
2024-03-09T03:40:32.999Z,1.27
2024-03-09T03:43:01.004Z,2.03
2024-03-09T03:45:29.107Z,1.63
2024-03-09T03:47:57.094Z,1.42
2024-03-09T03:50:25.342Z,1.00
2024-03-09T03:52:53.364Z,1.50
2024-03-09T03:55:22.261Z,1.55
2024-03-09T03:57:52.250Z,1.27
2024-03-09T04:00:22.697Z,1.00
2024-03-09T04:02:52.210Z,1.08
2024-03-09T04:05:20.138Z,1.80
2024-03-09T04:07:50.394Z,1.92
2024-03-09T04:10:20.532Z,1.33
2024-03-09T04:12:48.794Z,1.30
2024-03-09T04:15:16.906Z,1.35
2024-03-09T04:17:45.365Z,2.10
2024-03-09T04:20:18.206Z,1.63
2024-03-09T04:22:52.256Z,2.17
2024-03-09T04:25:21.493Z,0.88
2024-03-09T04:27:52.225Z,1.15
2024-03-09T04:30:20.250Z,2.30
2024-03-09T04:32:48.421Z,0.93
2024-03-09T04:35:16.854Z,1.35
2024-03-09T04:37:46.712Z,1.00
2024-03-09T04:40:17.366Z,0.82
2024-03-09T04:42:48.836Z,1.20
2024-03-09T04:45:21.612Z,1.30
2024-03-09T04:47:49.640Z,1.30
2024-03-09T04:50:21.289Z,1.40
2024-03-09T04:52:52.091Z,1.52
2024-03-09T04:55:23.966Z,1.00
2024-03-09T04:57:53.880Z,1.08
2024-03-09T05:00:23.445Z,1.05
2024-03-09T05:02:51.873Z,1.05
2024-03-09T05:05:20.925Z,1.80
2024-03-09T05:07:53.582Z,0.80
2024-03-09T05:10:22.148Z,0.95
2024-03-09T05:12:56.733Z,1.10
2024-03-09T05:15:26.815Z,1.27
2024-03-09T05:18:00.594Z,1.25
2024-03-09T05:20:30.602Z,0.82
2024-03-09T05:23:12.972Z,1.63
2024-03-09T05:25:44.697Z,1.00
2024-03-09T05:28:16.570Z,1.45
2024-03-09T05:30:45.766Z,1.00
2024-03-09T05:33:15.876Z,1.35
2024-03-09T05:35:44.135Z,0.95
2024-03-09T05:38:12.449Z,1.00
2024-03-09T05:40:41.668Z,0.98
2024-03-09T05:43:11.324Z,1.90
2024-03-09T05:45:40.155Z,1.98
2024-03-09T05:48:10.577Z,1.45
2024-03-09T05:50:40.075Z,1.05
2024-03-09T05:53:08.309Z,0.88
2024-03-09T05:55:36.899Z,1.50
2024-03-09T05:58:04.975Z,1.02
2024-03-09T06:00:33.398Z,1.42
2024-03-09T06:03:05.791Z,1.65
2024-03-09T06:05:35.459Z,1.02
2024-03-09T06:08:04.348Z,1.02
2024-03-09T06:10:36.288Z,1.73
2024-03-09T06:13:07.302Z,1.02
2024-03-09T06:15:35.489Z,1.50
2024-03-09T06:18:03.551Z,1.40
2024-03-09T06:20:34.150Z,1.33
2024-03-09T06:23:02.296Z,0.85
2024-03-09T06:25:31.837Z,1.10
2024-03-09T06:28:05.020Z,1.45
2024-03-09T06:30:33.930Z,1.10
2024-03-09T06:33:03.720Z,1.95
2024-03-09T06:35:34.346Z,1.25
2024-03-09T06:38:12.282Z,1.85
2024-03-09T06:40:43.436Z,1.65
2024-03-09T06:43:12.712Z,1.52
2024-03-09T06:45:43.794Z,1.50
2024-03-09T06:48:11.728Z,1.00
2024-03-09T06:50:48.963Z,1.23
2024-03-09T06:53:17.643Z,0.95
2024-03-09T06:55:45.617Z,0.98
2024-03-09T06:58:13.578Z,2.60
2024-03-09T07:00:42.704Z,0.77
2024-03-09T07:03:10.968Z,1.52
2024-03-09T07:05:41.123Z,1.40
2024-03-09T07:08:12.090Z,1.35
2024-03-09T07:10:40.530Z,1.40
2024-03-09T07:13:08.498Z,1.00
2024-03-09T07:15:38.516Z,1.00
2024-03-09T07:18:12.446Z,0.98
2024-03-09T07:20:41.382Z,1.63
2024-03-09T07:23:10.258Z,2.15
2024-03-09T07:25:38.361Z,1.20
2024-03-09T07:28:07.055Z,1.55
2024-03-09T07:30:35.104Z,1.60
2024-03-09T07:33:03.503Z,2.30
2024-03-09T07:35:31.854Z,1.20
2024-03-09T07:38:03.326Z,1.10
2024-03-09T07:40:33.473Z,1.02
2024-03-09T07:43:02.101Z,1.70
2024-03-09T07:45:31.977Z,1.13
2024-03-09T07:48:01.198Z,1.08
2024-03-09T07:50:29.824Z,2.33
2024-03-09T07:52:59.068Z,1.20
2024-03-09T07:55:29.835Z,1.67
2024-03-09T07:58:12.866Z,1.08
2024-03-09T08:00:47.427Z,1.17
2024-03-09T08:03:15.974Z,1.42
2024-03-09T08:05:44.351Z,1.20
2024-03-09T08:08:14.966Z,1.92
2024-03-09T08:10:49.747Z,1.25
2024-03-09T08:13:21.568Z,1.42
2024-03-09T08:15:49.631Z,1.83
2024-03-09T08:18:17.664Z,1.45
2024-03-09T08:20:46.230Z,0.90
2024-03-09T08:23:14.779Z,1.20
2024-03-09T08:25:43.983Z,1.35
2024-03-09T08:28:12.007Z,1.33
2024-03-09T08:30:39.956Z,1.20
2024-03-09T08:33:07.888Z,1.30
2024-03-09T08:35:36.243Z,1.15
2024-03-09T08:38:05.110Z,1.50
2024-03-09T08:40:33.411Z,1.35
2024-03-09T08:43:01.526Z,1.40
2024-03-09T08:45:31.093Z,1.45
2024-03-09T08:47:59.279Z,1.30
2024-03-09T08:50:27.585Z,1.45
2024-03-09T08:52:57.631Z,1.45
2024-03-09T08:55:25.846Z,1.33
2024-03-09T08:57:53.747Z,1.58
2024-03-09T09:00:22.314Z,1.08
2024-03-09T09:02:50.777Z,1.23
2024-03-09T09:05:20.483Z,1.63
2024-03-09T09:07:48.920Z,1.33
2024-03-09T09:10:18.577Z,1.23
2024-03-09T09:12:48.182Z,1.50
2024-03-09T09:15:19.154Z,0.77
2024-03-09T09:17:47.738Z,0.82
2024-03-09T09:20:16.996Z,1.92
2024-03-09T09:22:49.642Z,1.63
2024-03-09T09:25:21.228Z,2.10
2024-03-09T09:27:49.208Z,1.13
2024-03-09T09:30:17.155Z,1.33
2024-03-09T09:32:45.608Z,2.05
2024-03-09T09:35:18.059Z,1.48
2024-03-09T09:37:46.177Z,0.93
2024-03-09T09:40:15.193Z,1.30
2024-03-09T09:42:45.551Z,1.83
2024-03-09T09:45:23.776Z,1.73
2024-03-09T09:47:52.154Z,1.38
2024-03-09T09:50:20.558Z,0.98
2024-03-09T09:52:52.224Z,2.50
2024-03-09T09:55:23.910Z,0.90
2024-03-09T09:57:53.895Z,0.70
2024-03-09T10:00:25.735Z,1.52
2024-03-09T10:03:00.250Z,1.65
2024-03-09T10:05:31.118Z,1.13
2024-03-09T10:08:13.908Z,1.10
2024-03-09T10:10:50.032Z,0.73
2024-03-09T10:13:19.125Z,1.13
2024-03-09T10:15:51.218Z,1.10
2024-03-09T10:18:21.501Z,1.15
2024-03-09T10:20:51.968Z,1.42
2024-03-09T10:23:21.391Z,1.00
2024-03-09T10:25:49.873Z,0.90
2024-03-09T10:28:18.565Z,1.73
2024-03-09T10:30:46.586Z,2.42
2024-03-09T10:33:18.588Z,0.60
2024-03-09T10:35:54.607Z,1.50
2024-03-09T10:38:24.534Z,1.02
2024-03-09T10:40:54.221Z,0.70
2024-03-09T10:43:23.338Z,1.10
2024-03-09T10:45:57.044Z,2.22
2024-03-09T10:48:28.521Z,0.50
2024-03-09T10:51:05.642Z,1.00
2024-03-09T10:53:51.722Z,1.50
2024-03-09T10:56:24.820Z,0.90
2024-03-09T10:58:53.338Z,1.92
2024-03-09T11:01:25.411Z,1.60
2024-03-09T11:03:54.205Z,1.50
2024-03-09T11:06:23.904Z,1.00
2024-03-09T11:08:55.298Z,0.70
2024-03-09T11:11:25.766Z,0.80
2024-03-09T11:13:55.340Z,1.35
2024-03-09T11:16:25.882Z,1.33
2024-03-09T11:18:58.218Z,1.38
2024-03-09T11:21:36.570Z,1.38
2024-03-09T11:24:09.159Z,1.10
2024-03-09T11:29:12.536Z,1.48
2024-03-09T11:31:43.960Z,0.98
2024-03-09T11:34:28.264Z,1.40
2024-03-09T11:36:58.911Z,0.88
2024-03-09T11:39:30.912Z,1.20
2024-03-09T11:42:17.804Z,1.55
2024-03-09T11:44:45.797Z,1.17
2024-03-09T11:47:13.906Z,0.60
2024-03-09T11:49:42.295Z,1.20
2024-03-09T11:52:13.685Z,1.33
2024-03-09T11:54:45.467Z,1.40
2024-03-09T11:57:13.532Z,1.10
2024-03-09T11:59:41.504Z,0.60
2024-03-09T12:02:10.142Z,1.80
2024-03-09T12:04:38.714Z,1.52
2024-03-09T12:07:10.885Z,1.40
2024-03-09T12:09:39.636Z,1.35
2024-03-09T12:12:17.411Z,1.27
2024-03-09T12:14:46.118Z,1.00
2024-03-09T12:17:14.634Z,0.98
2024-03-09T12:19:44.170Z,1.20
2024-03-09T12:22:12.815Z,1.10
2024-03-09T12:24:41.627Z,1.33
2024-03-09T12:27:12.657Z,1.40
2024-03-09T12:29:41.195Z,1.38
2024-03-09T12:32:10.209Z,0.50
2024-03-09T12:34:39.660Z,1.85
2024-03-09T12:37:07.747Z,0.75
2024-03-09T12:39:40.262Z,1.85
2024-03-09T12:42:10.999Z,1.48
2024-03-09T12:44:39.879Z,1.60
2024-03-09T12:47:08.654Z,1.02
2024-03-09T12:49:37.583Z,0.52
2024-03-09T12:52:07.080Z,1.50
2024-03-09T12:54:34.983Z,1.85
2024-03-09T12:57:05.880Z,1.55
2024-03-09T12:59:34.064Z,1.48
2024-03-09T13:02:02.878Z,1.13
2024-03-09T13:04:30.924Z,0.80
2024-03-09T13:07:00.091Z,1.17
2024-03-09T13:09:37.589Z,1.30
2024-03-09T13:12:06.646Z,0.70
2024-03-09T13:14:38.981Z,0.82
2024-03-09T13:17:08.439Z,1.95
2024-03-09T13:19:38.554Z,1.08
2024-03-09T13:22:08.395Z,1.00
2024-03-09T13:24:36.352Z,1.63
2024-03-09T13:27:04.506Z,2.17
2024-03-09T13:29:32.895Z,1.52
2024-03-09T13:32:01.201Z,1.30
2024-03-09T13:34:32.592Z,1.42
2024-03-09T13:37:01.677Z,1.35
2024-03-09T13:39:36.855Z,0.85
2024-03-09T13:42:11.102Z,1.35
2024-03-09T13:44:39.813Z,1.05
2024-03-09T13:47:13.654Z,1.52
2024-03-09T13:49:41.951Z,1.40
2024-03-09T13:52:11.858Z,1.08
2024-03-09T13:54:39.959Z,1.63
2024-03-09T13:57:07.851Z,1.88
2024-03-09T13:59:37.082Z,2.42
2024-03-09T14:02:10.256Z,2.15
2024-03-09T14:04:38.417Z,2.05
2024-03-09T14:07:09.280Z,0.70
2024-03-09T14:09:56.041Z,1.30
2024-03-09T14:12:24.509Z,0.73
2024-03-09T14:14:54.847Z,1.75
2024-03-09T14:17:23.737Z,1.15
2024-03-09T14:19:54.795Z,0.75
2024-03-09T14:22:28.535Z,1.88
2024-03-09T14:24:58.560Z,1.67
2024-03-09T14:27:27.221Z,1.55
2024-03-09T14:29:55.932Z,1.90
2024-03-09T14:32:24.596Z,1.38
2024-03-09T14:34:52.777Z,1.77
2024-03-09T14:37:20.888Z,1.33
2024-03-09T14:39:48.881Z,1.10
2024-03-09T14:42:19.708Z,1.35
2024-03-09T14:44:47.650Z,2.70
2024-03-09T14:47:15.813Z,4.60
2024-03-09T14:49:44.361Z,4.93
2024-03-09T14:52:14.675Z,5.80
2024-03-09T14:54:43.481Z,2.83
2024-03-09T14:57:11.765Z,2.53
2024-03-09T14:59:40.118Z,1.27
2024-03-09T15:02:09.230Z,1.35
2024-03-09T15:04:37.878Z,1.73
2024-03-09T15:07:07.813Z,1.70
2024-03-09T15:09:36.124Z,1.00
2024-03-09T15:12:09.846Z,1.20
2024-03-09T15:14:37.982Z,1.40
2024-03-09T15:17:11.345Z,1.00
2024-03-09T15:19:39.406Z,1.23
2024-03-09T15:22:07.416Z,1.60
2024-03-09T15:24:35.434Z,1.08
2024-03-09T15:27:04.920Z,2.35
2024-03-09T15:29:33.349Z,1.45
2024-03-09T15:32:04.876Z,0.95
2024-03-09T15:34:33.126Z,0.80
2024-03-09T15:37:01.103Z,2.05
2024-03-09T15:39:29.307Z,1.40
2024-03-09T15:42:00.023Z,1.45
2024-03-09T15:44:29.425Z,2.03
2024-03-09T15:46:57.430Z,1.25
2024-03-09T15:49:25.501Z,0.90
2024-03-09T15:51:55.872Z,1.55
2024-03-09T15:54:26.448Z,1.38
2024-03-09T15:56:54.326Z,1.40
2024-03-09T15:59:22.430Z,1.50
2024-03-09T16:01:50.542Z,2.13
2024-03-09T16:04:18.512Z,1.23
2024-03-09T16:06:48.677Z,1.40
2024-03-09T16:09:16.648Z,2.03
2024-03-09T16:11:44.915Z,2.63
2024-03-09T16:14:15.778Z,3.22
2024-03-09T16:16:43.804Z,2.67
2024-03-09T16:19:11.677Z,2.90
2024-03-09T16:21:40.891Z,2.47
2024-03-09T16:24:09.323Z,3.88
2024-03-09T16:26:37.564Z,4.05
2024-03-09T16:29:05.921Z,4.30
2024-03-09T16:31:37.373Z,3.53
2024-03-09T16:34:08.687Z,2.80
2024-03-09T16:36:36.861Z,2.53
2024-03-09T16:39:10.309Z,1.83
2024-03-09T16:41:39.992Z,2.55
2024-03-09T16:44:08.018Z,2.25
2024-03-09T16:46:36.195Z,2.72
2024-03-09T16:49:07.173Z,2.85
2024-03-09T16:51:35.849Z,3.00
2024-03-09T16:54:08.669Z,2.58
2024-03-09T16:56:38.166Z,1.75
2024-03-09T16:59:09.515Z,1.70
2024-03-09T17:01:44.953Z,2.38
2024-03-09T17:04:17.053Z,2.83
2024-03-09T17:06:45.130Z,2.83
2024-03-09T17:09:13.150Z,2.00
2024-03-09T17:11:42.108Z,2.75
2024-03-09T17:14:10.158Z,3.38
2024-03-09T17:16:40.427Z,3.17
2024-03-09T17:19:12.843Z,3.78
2024-03-09T17:21:41.993Z,2.58
2024-03-09T17:24:10.985Z,2.63
2024-03-09T17:26:41.263Z,1.45
2024-03-09T17:29:09.347Z,2.35
2024-03-09T17:31:40.271Z,2.83
2024-03-09T17:34:11.112Z,2.78
2024-03-09T17:36:39.029Z,2.85
2024-03-09T17:39:07.224Z,2.78
2024-03-09T17:41:35.289Z,2.30
2024-03-09T17:44:08.373Z,2.28
2024-03-09T17:46:36.647Z,1.20
2024-03-09T17:49:04.641Z,2.40
2024-03-09T17:51:32.971Z,1.20
2024-03-09T17:54:03.090Z,2.38
2024-03-09T17:56:31.584Z,1.20
2024-03-09T17:58:59.841Z,1.27
2024-03-09T18:01:29.442Z,1.33
2024-03-09T18:03:58.333Z,1.20
2024-03-09T18:06:27.461Z,2.05
2024-03-09T18:08:55.526Z,2.35
2024-03-09T18:11:25.533Z,1.10
2024-03-09T18:13:53.490Z,1.10
2024-03-09T18:16:22.440Z,2.45
2024-03-09T18:18:53.689Z,0.80
2024-03-09T18:21:26.706Z,2.17
2024-03-09T18:23:54.794Z,1.20
2024-03-09T18:26:22.897Z,0.90
2024-03-09T18:28:52.233Z,2.90
2024-03-09T18:31:20.723Z,1.30
2024-03-09T18:33:51.066Z,1.00
2024-03-09T18:36:19.229Z,2.13
2024-03-09T18:38:48.024Z,4.05
2024-03-09T18:41:15.971Z,1.65
2024-03-09T18:43:44.003Z,6.20
2024-03-09T18:46:11.939Z,15.30
2024-03-09T18:48:41.013Z,1.33
2024-03-09T18:51:09.536Z,1.95
2024-03-09T18:53:37.594Z,1.35
2024-03-09T18:56:06.099Z,1.27
2024-03-09T18:58:36.468Z,2.95
2024-03-09T19:01:04.906Z,12.70
2024-03-09T19:03:34.566Z,13.75
2024-03-09T19:06:05.930Z,23.55
2024-03-09T19:08:34.028Z,13.95
2024-03-09T19:11:02.773Z,22.67
2024-03-09T19:13:31.787Z,24.70
2024-03-09T19:15:59.871Z,36.63
2024-03-09T19:18:29.145Z,16.40
2024-03-09T19:20:57.272Z,25.52
2024-03-09T19:23:26.437Z,32.75
2024-03-09T19:25:55.976Z,2.90
2024-03-09T19:28:25.035Z,9.35
2024-03-09T19:30:54.734Z,21.23
2024-03-09T19:33:23.528Z,17.83
2024-03-09T19:35:52.453Z,33.70
2024-03-09T19:38:20.508Z,21.55
2024-03-09T19:40:48.585Z,2.78
2024-03-09T19:43:16.683Z,8.35
2024-03-09T19:45:45.196Z,3.28
2024-03-09T19:48:13.318Z,2.05
2024-03-09T19:50:41.561Z,1.17
2024-03-09T19:53:12.167Z,2.97
2024-03-09T19:55:41.439Z,6.90
2024-03-09T19:58:11.358Z,9.32
2024-03-09T20:00:39.731Z,5.43
2024-03-09T20:03:09.249Z,7.90
2024-03-09T20:05:37.248Z,1.27
2024-03-09T20:08:06.010Z,1.45
2024-03-09T20:10:34.680Z,7.53
2024-03-09T20:13:04.717Z,3.70
2024-03-09T20:15:32.841Z,2.85
2024-03-09T20:18:01.488Z,1.13
2024-03-09T20:20:30.125Z,1.75
2024-03-09T20:23:02.390Z,2.13
2024-03-09T20:25:30.568Z,3.05
2024-03-09T20:27:58.668Z,2.13
2024-03-09T20:30:28.257Z,2.67
2024-03-09T20:32:56.378Z,2.17
2024-03-09T20:35:25.703Z,1.30
2024-03-09T20:37:54.630Z,1.52
2024-03-09T20:40:22.703Z,1.50
2024-03-09T20:42:52.065Z,2.58
2024-03-09T20:45:22.311Z,8.27
2024-03-09T20:47:51.422Z,9.35
2024-03-09T20:50:22.427Z,22.73
2024-03-09T20:53:00.461Z,30.98
2024-03-09T20:55:32.902Z,3.70
2024-03-09T21:00:29.882Z,3.58
2024-03-09T21:03:00.618Z,4.32
2024-03-09T21:05:28.729Z,1.77
2024-03-09T21:07:56.831Z,3.08
2024-03-09T21:10:24.967Z,31.52
2024-03-09T21:12:52.962Z,21.08
2024-03-09T21:15:21.053Z,60.42
2024-03-09T21:17:52.437Z,10.18
2024-03-09T21:20:22.099Z,5.63
2024-03-09T21:22:50.700Z,40.88
2024-03-09T21:25:18.840Z,45.83
2024-03-09T21:27:46.865Z,6.63
2024-03-09T21:30:17.698Z,7.95
2024-03-09T21:32:49.206Z,4.60
2024-03-09T21:35:21.235Z,4.15
2024-03-09T21:37:54.009Z,1.27
2024-03-09T21:40:22.807Z,1.08
2024-03-09T21:42:52.447Z,1.13
2024-03-09T21:45:21.668Z,1.23
2024-03-09T21:47:50.262Z,1.58
2024-03-09T21:50:24.490Z,2.13
2024-03-09T21:52:54.749Z,16.08
2024-03-09T21:55:24.577Z,26.33
2024-03-09T21:57:53.992Z,24.23
2024-03-09T22:00:23.073Z,3.45
2024-03-09T22:02:55.845Z,1.60
2024-03-09T22:05:28.178Z,2.97
2024-03-09T22:10:27.433Z,1.67
2024-03-09T22:12:57.417Z,1.95
2024-03-09T22:15:29.080Z,1.92
2024-03-09T22:17:58.120Z,1.52
2024-03-09T22:20:26.735Z,0.98
2024-03-09T22:22:55.199Z,0.82
2024-03-09T22:25:29.214Z,0.90
2024-03-09T22:27:57.352Z,1.05
2024-03-09T22:30:25.623Z,7.45
2024-03-09T22:32:54.365Z,37.75
2024-03-09T22:35:23.269Z,66.28
2024-03-09T22:37:52.345Z,25.98
2024-03-09T22:40:22.111Z,16.38
2024-03-09T22:42:50.303Z,19.30
2024-03-09T22:45:18.366Z,12.70
2024-03-09T22:47:47.922Z,23.88
2024-03-09T22:50:17.843Z,27.90
2024-03-09T22:52:45.996Z,15.93
2024-03-09T22:55:15.270Z,30.98
2024-03-09T22:57:47.250Z,12.68
2024-03-09T23:00:36.138Z,15.32
2024-03-09T23:03:04.541Z,9.90
2024-03-09T23:05:33.407Z,5.88
2024-03-09T23:08:02.440Z,5.32
2024-03-09T23:10:30.578Z,13.90
2024-03-09T23:12:58.770Z,15.10
2024-03-09T23:15:27.437Z,13.75
2024-03-09T23:17:56.119Z,29.15
2024-03-09T23:20:29.036Z,26.65
2024-03-09T23:22:59.849Z,22.35
2024-03-09T23:25:28.512Z,26.98
2024-03-09T23:27:57.961Z,5.53
2024-03-09T23:30:26.779Z,6.32
2024-03-09T23:32:56.794Z,1.70
2024-03-09T23:35:25.572Z,2.72
2024-03-09T23:37:53.869Z,1.70
2024-03-09T23:40:22.510Z,1.45
2024-03-09T23:42:50.699Z,4.10
2024-03-09T23:45:21.299Z,1.55
2024-03-09T23:47:52.080Z,1.60
2024-03-09T23:50:21.899Z,1.23
2024-03-09T23:52:51.551Z,0.70
2024-03-09T23:55:20.271Z,0.90
2024-03-09T23:57:49.588Z,1.42
